Invesco Field (Denver), Colorado
Current Conditions -  °F | °C
As of 5:35 AM on Friday 24 Oct 2014 (Local Time) from KBJC Reporting Station
Clear Clear  
Wind Chill: 59°   Ceiling: Unl
Heat Index: 59°   Visibility: 10mi
Dew Point: 25°   Wind: 9mph
Humidity: 27%   Direction: 270°W
Pressure: 30.17"   Gusts: NA
Location:  39.74401°N, 105.0253°W
Report Text: KBJC 241135Z AUTO 27008KT 10SM CLR 15/M04 A3017 RMK AO2
Loading
Personal Weather Stations






























Interactive Weather Map
Tropical Storm Tracking
New forecast layout! Learn more

10-Day Weather Forecast

Advertisements
Track Severe Weather on mobile